ナタール の空港の天気 - METARとTAF

アウグスト・セヴェーロ国際空港 ( SBNT / NAT ) - ブラジル リオグランデ・ド・ノルテ州ナタール
飛行場実況気象(Metar)
観測時間12/01 20:00 BRT (12/01 23:00 UTC)
風向・風速東南東 7m/s
視程10km以上
天気現象
少しの雲 雲底高度 700m
気温27℃
湿度79%
気圧1013hPa
METARSBNT 012300Z 12014KT 9999 FEW023 27/23 Q1013
過去の天気等 Google飛行場航空写真 Wunderground天気予報

過去48時間のMETAR

飛行場予報(TAF)
発表時間: 12/01 12:00 BRT (12/01 15:00 UTC)
予報対象時間: 1日15時 BRT ~ 2日3時 BRT
風向・風速東南東 8m/s
視程10km以上
少しの雲 雲底高度 760m
TAF SBNT 011500Z 0118/0206 12015KT 9999 FEW025 TX29/0118Z TN24/0206Z RMK PHD